Time;durP1;ratioP1;P1;durP2;ratioP2;P2;SDS_P1;SDS_P2;PMS_P1;PMS_P2;Temp;Humidity;BMP_temperature;BMP_pressure;BME280_temperature;BME280_humidity;BME280_pressure;Samples;Min_cycle;Max_cycle;Signal;HPM_P1;HPM_P2
2022/09/14 18:30:49;;;;;;;11.15;4.55;;;;;;;20.52;66.24;97801.28;5144577;27;20169;-71
2022/09/14 18:33:17;;;;;;;6.93;5.20;;;;;;;20.59;66.05;97799.50;5122843;28;20106;-72
2022/09/14 18:35:45;;;;;;;11.00;7.60;;;;;;;20.89;65.38;97829.94;5123037;28;20312;-73
2022/09/14 18:38:12;;;;;;;8.10;6.90;;;;;;;21.16;66.08;97874.25;5122879;28;20052;-73
2022/09/14 18:40:39;;;;;;;10.40;7.78;;;;;;;21.23;66.32;97875.19;5122825;28;20059;-73
2022/09/14 18:43:09;;;;;;;9.40;6.15;;;;;;;21.28;66.71;97867.38;5122665;28;20052;-72
2022/09/14 18:45:37;;;;;;;8.40;6.30;;;;;;;20.96;66.20;97806.63;5123202;28;20047;-73
2022/09/14 18:48:06;;;;;;;8.60;5.63;;;;;;;21.38;66.41;97861.69;5122974;28;20054;-73
2022/09/14 18:50:33;;;;;;;7.28;5.57;;;;;;;21.41;66.67;97859.44;5122732;28;20051;-73
2022/09/14 18:53:00;;;;;;;6.13;5.30;;;;;;;21.45;66.67;97867.97;5122728;28;20047;-73
2022/09/14 18:55:28;;;;;;;7.28;5.03;;;;;;;21.49;66.69;97874.66;5084681;28;20056;-72
2022/09/14 18:57:55;;;;;;;7.07;5.30;;;;;;;21.08;67.13;97807.03;5102303;28;20316;-73
2022/09/14 19:00:22;;;;;;;10.52;4.95;;;;;;;20.34;67.12;97685.94;5102356;28;20056;-73
2022/09/14 19:02:52;;;;;;;6.03;4.10;;;;;;;21.59;67.11;97885.16;5101947;28;20216;-73
2022/09/14 19:05:22;;;;;;;7.13;4.88;;;;;;;21.60;67.24;97887.66;5102094;28;20204;-73
2022/09/14 19:07:50;;;;;;;7.80;4.82;;;;;;;21.62;67.23;97879.38;5102040;28;20056;-73
2022/09/14 19:10:17;;;;;;;6.32;4.55;;;;;;;21.40;66.95;97838.06;5102084;28;20053;-73
2022/09/14 19:12:45;;;;;;;7.97;5.05;;;;;;;21.64;67.32;97888.09;5101924;28;20312;-73
2022/09/14 19:15:12;;;;;;;10.85;8.63;;;;;;;21.10;67.33;97792.34;5102012;28;20066;-73
2022/09/14 19:17:40;;;;;;;12.15;9.48;;;;;;;21.62;67.51;97865.91;5101957;28;20059;-73
2022/09/14 19:20:09;;;;;;;14.75;10.90;;;;;;;20.75;67.49;97712.34;5101762;28;20063;-73
2022/09/14 19:22:38;;;;;;;8.13;6.70;;;;;;;21.64;67.47;97848.50;5101551;28;20056;-72
2022/09/14 19:25:07;;;;;;;6.40;5.50;;;;;;;21.66;67.37;97856.41;5102101;28;20052;-73
2022/09/14 19:27:35;;;;;;;6.50;5.07;;;;;;;21.68;67.53;97884.00;5101837;28;20063;-73
2022/09/14 19:30:04;;;;;;;7.13;4.78;;;;;;;21.45;67.46;97878.75;5080107;28;20049;-73
2022/09/14 19:32:33;;;;;;;10.73;5.78;;;;;;;21.66;68.03;97935.41;5081505;28;20056;-73
2022/09/14 19:35:00;;;;;;;9.57;5.20;;;;;;;21.65;68.51;97960.72;5081621;28;20056;-73
2022/09/14 19:37:30;;;;;;;8.82;5.03;;;;;;;21.49;68.99;97978.94;5081385;28;20060;-73
2022/09/14 19:39:58;;;;;;;5.82;3.92;;;;;;;21.45;70.43;98037.78;5080788;28;20052;-73
2022/09/14 19:42:27;;;;;;;5.35;4.00;;;;;;;21.22;71.61;98040.53;5067982;28;20057;-75
2022/09/14 19:44:55;;;;;;;5.07;3.92;;;;;;;21.22;71.97;98086.34;5067899;28;20063;-74
2022/09/14 19:47:23;;;;;;;6.53;3.50;;;;;;;21.24;72.14;98094.25;5068356;28;20057;-74
2022/09/14 19:49:51;;;;;;;7.38;4.00;;;;;;;21.13;71.79;98085.59;5068154;28;20175;-74
2022/09/14 19:52:18;;;;;;;6.43;4.03;;;;;;;21.16;72.36;98111.31;5068065;28;20052;-74
2022/09/14 19:54:45;;;;;;;9.65;4.93;;;;;;;20.95;73.80;98101.19;5067848;28;20313;-74
2022/09/14 19:57:14;;;;;;;7.32;4.50;;;;;;;21.05;74.18;98134.16;5066753;28;20063;-74
2022/09/14 19:59:41;;;;;;;6.50;4.78;;;;;;;21.01;74.28;98135.50;5067808;28;20059;-74
2022/09/14 20:02:10;;;;;;;7.43;4.90;;;;;;;21.02;74.46;98128.25;5067754;28;20053;-74
2022/09/14 20:04:37;;;;;;;6.30;4.75;;;;;;;21.03;73.63;98106.56;5067485;28;20221;-74
2022/09/14 20:07:06;;;;;;;6.82;4.93;;;;;;;21.07;74.21;98112.41;5067802;28;20056;-74
2022/09/14 20:09:33;;;;;;;8.43;5.25;;;;;;;21.07;73.87;98115.09;5067471;28;20053;-74
2022/09/14 20:12:01;;;;;;;6.43;4.82;;;;;;;21.06;74.30;98099.97;5067508;28;20321;-74
2022/09/14 20:14:30;;;;;;;7.70;4.25;;;;;;;21.03;75.11;98095.78;5067676;28;20053;-74
2022/09/14 20:16:59;;;;;;;8.18;4.45;;;;;;;20.83;75.48;98054.16;5067395;28;20057;-74
2022/09/14 20:19:29;;;;;;;6.05;3.70;;;;;;;21.00;74.89;98061.09;5067521;28;20057;-75
